createdAt,value
2022-10-17T00:05:39.555Z,999.37
2022-10-17T00:11:23.888Z,999.4
2022-10-17T00:17:07.319Z,999.43
2022-10-17T00:22:50.567Z,999.41
2022-10-17T00:28:33.872Z,999.49
2022-10-17T00:34:17.489Z,999.45
2022-10-17T00:40:00.762Z,999.47
2022-10-17T00:45:44.103Z,999.56
2022-10-17T00:51:29.538Z,999.57
2022-10-17T00:57:13.085Z,999.58
2022-10-17T01:02:56.515Z,999.57
2022-10-17T01:08:39.803Z,999.61
2022-10-17T01:14:29.015Z,999.54
2022-10-17T01:20:23.934Z,999.66
2022-10-17T01:26:12.861Z,999.67
2022-10-17T01:32:00.768Z,999.66
2022-10-17T01:37:47.755Z,999.63
2022-10-17T01:43:35.144Z,999.64
2022-10-17T01:49:21.266Z,999.6
2022-10-17T01:55:09.583Z,999.54
2022-10-17T02:00:54.039Z,999.63
2022-10-17T02:06:39.303Z,999.56
2022-10-17T02:12:42.336Z,999.54
2022-10-17T02:18:31.428Z,999.54
2022-10-17T02:24:19.306Z,999.53
2022-10-17T02:30:07.267Z,999.62
2022-10-17T02:35:52.718Z,999.63
2022-10-17T02:41:37.303Z,999.65
2022-10-17T02:47:23.795Z,999.67
2022-10-17T02:53:09.727Z,999.56
2022-10-17T02:58:56.115Z,999.7
2022-10-17T03:04:43.178Z,999.82
2022-10-17T03:10:26.251Z,999.71
2022-10-17T03:16:09.584Z,999.77
2022-10-17T03:21:52.736Z,999.75
2022-10-17T03:27:35.927Z,999.77
2022-10-17T03:33:19.495Z,999.72
2022-10-17T03:39:02.846Z,999.74
2022-10-17T03:44:46.182Z,999.74
2022-10-17T03:50:29.626Z,999.76
2022-10-17T03:56:16.218Z,999.86
2022-10-17T04:01:59.586Z,999.95
2022-10-17T04:07:43.031Z,1000.04
2022-10-17T04:13:26.279Z,1000.11
2022-10-17T04:19:12.470Z,1000.26
2022-10-17T04:24:56.745Z,1000.23
2022-10-17T04:30:45.169Z,1000.27
2022-10-17T04:36:34.942Z,1000.25
2022-10-17T04:42:19.179Z,1000.3
2022-10-17T04:48:02.358Z,1000.35
2022-10-17T04:53:45.950Z,1000.31
2022-10-17T04:59:29.258Z,1000.32
2022-10-17T05:05:12.855Z,1000.36
2022-10-17T05:10:57.223Z,1000.44
2022-10-17T05:16:41.218Z,1000.36
2022-10-17T05:22:24.417Z,1000.38
2022-10-17T05:28:07.593Z,1000.56
2022-10-17T05:33:50.868Z,1000.59
2022-10-17T05:39:34.049Z,1000.72
2022-10-17T05:45:17.354Z,1000.75
2022-10-17T05:51:03.058Z,1000.59
2022-10-17T05:56:46.406Z,1000.49
2022-10-17T06:02:30.219Z,1000.53
2022-10-17T06:08:15.687Z,1000.69
2022-10-17T06:13:59.030Z,1000.72
2022-10-17T06:19:42.138Z,1000.86
2022-10-17T06:25:25.521Z,1001.07
2022-10-17T06:31:09.965Z,1001.16
2022-10-17T06:36:53.776Z,1001.27
2022-10-17T06:42:36.947Z,1001.5
2022-10-17T06:48:20.244Z,1001.49
2022-10-17T06:54:03.235Z,1001.52
2022-10-17T06:59:46.447Z,1001.55
2022-10-17T07:05:29.573Z,1001.54
2022-10-17T07:11:16.035Z,1001.63
2022-10-17T07:16:59.301Z,1001.71
2022-10-17T07:22:42.530Z,1001.89
2022-10-17T07:28:25.838Z,1002.03
2022-10-17T07:34:09.206Z,1002.1
2022-10-17T07:39:52.403Z,1002.23
2022-10-17T07:45:35.687Z,1002.41
2022-10-17T07:51:19.178Z,1002.54
2022-10-17T07:57:03.598Z,1002.58
2022-10-17T08:02:46.822Z,1002.88
2022-10-17T08:08:30.659Z,1002.98
2022-10-17T08:14:14.745Z,1003.05
2022-10-17T08:19:58.014Z,1002.95
2022-10-17T08:25:42.243Z,1003
2022-10-17T08:31:25.298Z,1002.92
2022-10-17T08:37:08.882Z,1002.71
2022-10-17T08:43:14.271Z,1002.65
2022-10-17T08:48:59.774Z,1002.41
2022-10-17T08:54:44.542Z,1002.53
2022-10-17T09:00:29.579Z,1002.57
2022-10-17T09:06:18.440Z,1002.72
2022-10-17T09:12:05.917Z,1002.83
2022-10-17T09:17:52.560Z,1003.02
2022-10-17T09:23:43.438Z,1003.26
2022-10-17T09:29:37.025Z,1003.09
2022-10-17T09:35:27.961Z,1003.26
2022-10-17T09:41:43.403Z,1003.38
2022-10-17T09:47:27.135Z,1003.19
2022-10-17T09:53:13.026Z,1003.15
2022-10-17T09:58:57.407Z,1003.47
2022-10-17T10:05:03.596Z,1003.48
2022-10-17T10:10:47.071Z,1003.67
2022-10-17T10:16:39.392Z,1003.77
2022-10-17T10:22:23.392Z,1003.91
2022-10-17T10:28:10.219Z,1004.09
2022-10-17T10:33:57.787Z,1004.23
2022-10-17T10:39:43.667Z,1004.35
2022-10-17T10:45:48.888Z,1004.37
2022-10-17T10:51:33.316Z,1004.46
2022-10-17T10:57:22.322Z,1004.49
2022-10-17T11:03:13.662Z,1004.46
2022-10-17T11:09:02.144Z,1004.58
2022-10-17T11:14:49.439Z,1004.63
2022-10-17T11:20:37.287Z,1004.63
2022-10-17T11:26:22.354Z,1004.72
2022-10-17T11:32:10.110Z,1004.85
2022-10-17T11:37:59.010Z,1005.05
2022-10-17T11:43:46.022Z,1005.03
2022-10-17T11:49:38.164Z,1005.22
2022-10-17T11:55:26.738Z,1005.31
2022-10-17T12:01:14.728Z,1005.3
2022-10-17T12:07:05.810Z,1005.22
2022-10-17T12:12:49.241Z,1005.36
2022-10-17T12:18:32.622Z,1005.45
2022-10-17T12:24:27.399Z,1005.55
2022-10-17T12:30:16.045Z,1005.58
2022-10-17T12:36:10.249Z,1005.45
2022-10-17T12:41:57.281Z,1005.45
2022-10-17T12:47:41.849Z,1005.68
2022-10-17T12:53:27.785Z,1005.86
2022-10-17T12:59:14.904Z,1005.88
2022-10-17T13:05:03.271Z,1005.97
2022-10-17T13:10:52.768Z,1005.98
2022-10-17T13:16:37.578Z,1005.97
2022-10-17T13:22:21.913Z,1006.03
2022-10-17T13:28:12.508Z,1006.23
2022-10-17T13:33:56.318Z,1006.09
2022-10-17T13:40:07.328Z,1006.1
2022-10-17T13:45:46.527Z,1006.09
2022-10-17T13:51:30.078Z,1006.32
2022-10-17T13:57:22.253Z,1006.67
2022-10-17T14:03:06.376Z,1006.77
2022-10-17T14:08:58.471Z,1006.82
2022-10-17T14:15:09.596Z,1006.87
2022-10-17T14:26:55.562Z,1006.81
2022-10-17T14:32:38.763Z,1006.8
2022-10-17T14:38:22.383Z,1006.72
2022-10-17T14:44:08.022Z,1006.79
2022-10-17T14:49:52.250Z,1006.81
2022-10-17T14:55:36.291Z,1007.04
2022-10-17T15:01:20.522Z,1007.22
2022-10-17T15:07:03.715Z,1007.38
2022-10-17T15:12:59.049Z,1007.42
2022-10-17T15:18:51.441Z,1007.34
2022-10-17T15:24:34.846Z,1007.14
2022-10-17T15:30:22.851Z,1007.09
2022-10-17T15:36:06.259Z,1007.19
2022-10-17T15:41:49.974Z,1007.32
2022-10-17T15:47:34.273Z,1007.42
2022-10-17T15:53:18.767Z,1007.49
2022-10-17T15:59:02.667Z,1007.58
2022-10-17T16:04:47.256Z,1007.66
2022-10-17T16:10:30.447Z,1007.71
2022-10-17T16:16:13.951Z,1007.73
2022-10-17T16:22:02.153Z,1007.71
2022-10-17T16:27:48.082Z,1007.72
2022-10-17T16:33:31.396Z,1007.7
2022-10-17T16:39:14.745Z,1007.7
2022-10-17T16:45:01.040Z,1007.71
2022-10-17T16:50:44.750Z,1007.8
2022-10-17T16:56:28.627Z,1007.9
2022-10-17T17:02:14.401Z,1008.02
2022-10-17T17:08:03.691Z,1008.07
2022-10-17T17:13:55.604Z,1007.89
2022-10-17T17:19:40.916Z,1008.01
2022-10-17T17:25:23.995Z,1007.95
2022-10-17T17:31:08.567Z,1008
2022-10-17T17:36:53.670Z,1008.01
2022-10-17T17:42:37.630Z,1008.14
2022-10-17T17:48:21.702Z,1008.33
2022-10-17T17:54:05.689Z,1008.55
2022-10-17T17:59:49.729Z,1008.6
2022-10-17T18:05:33.896Z,1008.59
2022-10-17T18:11:22.271Z,1008.55
2022-10-17T18:17:06.300Z,1008.58
2022-10-17T18:22:51.275Z,1008.55
2022-10-17T18:28:35.520Z,1008.51
2022-10-17T18:34:19.663Z,1008.45
2022-10-17T18:40:03.363Z,1008.57
2022-10-17T18:45:47.090Z,1008.63
2022-10-17T18:51:30.876Z,1008.7
2022-10-17T18:57:14.779Z,1008.68
2022-10-17T19:02:58.586Z,1008.73
2022-10-17T19:08:42.939Z,1008.74
2022-10-17T19:14:26.892Z,1008.77
2022-10-17T19:20:11.509Z,1008.81
2022-10-17T19:25:59.732Z,1008.68
2022-10-17T19:31:44.669Z,1008.65
2022-10-17T19:37:29.314Z,1008.62
2022-10-17T19:43:14.033Z,1008.63
2022-10-17T19:48:58.150Z,1008.62
2022-10-17T19:54:42.522Z,1008.56
2022-10-17T20:00:26.560Z,1008.5
2022-10-17T20:06:10.754Z,1008.54
2022-10-17T20:11:54.534Z,1008.58
2022-10-17T20:17:38.633Z,1008.74
2022-10-17T20:23:22.633Z,1008.76
2022-10-17T20:29:07.969Z,1008.73
2022-10-17T20:34:52.273Z,1008.76
2022-10-17T20:40:36.990Z,1008.83
2022-10-17T20:52:25.223Z,1008.98
2022-10-17T20:58:10.186Z,1009.01
2022-10-17T21:03:54.899Z,1009.04
2022-10-17T21:09:47.272Z,1008.94
2022-10-17T21:15:30.939Z,1009.04
2022-10-17T21:21:16.084Z,1009.06
2022-10-17T21:26:59.485Z,1009.18
2022-10-17T21:32:51.339Z,1009.18
2022-10-17T21:38:36.081Z,1009.32
2022-10-17T21:44:19.914Z,1009.27
2022-10-17T21:50:03.117Z,1009.29
2022-10-17T21:55:46.284Z,1009.32
2022-10-17T22:01:31.842Z,1009.32
2022-10-17T22:07:15.353Z,1009.36
2022-10-17T22:12:59.603Z,1009.4
2022-10-17T22:18:43.066Z,1009.37
2022-10-17T22:24:26.350Z,1009.31
2022-10-17T22:30:10.533Z,1009.32
2022-10-17T22:35:53.598Z,1009.31
2022-10-17T22:41:36.836Z,1009.32
2022-10-17T22:47:20.000Z,1009.32
2022-10-17T22:53:03.550Z,1009.27
2022-10-17T22:58:47.264Z,1009.27
2022-10-17T23:04:30.356Z,1009.18
2022-10-17T23:10:13.994Z,1009.17
2022-10-17T23:15:58.171Z,1009.17
2022-10-17T23:21:41.478Z,1009.12
2022-10-17T23:27:24.795Z,1009.15
2022-10-17T23:33:08.523Z,1009.17
2022-10-17T23:38:56.398Z,1009.17
2022-10-17T23:44:41.686Z,1009.19
2022-10-17T23:50:24.962Z,1009.22
2022-10-17T23:56:08.959Z,1009.32
